Weather at Faith Hospital Helipad

Public forecast

Using degrees Celsius for public forecast. Weather courtesy of forecast.io.

Closest aviation weather report (METAR) to Faith Hospital Helipad

Report is more than 6 hours old.

Closest report is Gerrard Smith International Airport, 3.6 nm (6.6 km) WSW. Retrieved 2021/03/02 00:00 UTC (6 hours ago):

MWCB 020000Z VRB02KT 9999 FEW022 26/23 Q1015

Closest aviation forecast (TAF) to Faith Hospital Helipad

Forecast is more than 12 hours old.

Closest forecast is Gerrard Smith International Airport, 3.6 nm (6.6 km) WSW. Retrieved 2021/03/01 18:03 UTC (12 hours ago):

TAF MWCB 020000Z 0118/0218 CNL